createdAt,value
2023-02-07T00:00:56.353Z,-4.73
2023-02-07T00:03:23.254Z,-4.72
2023-02-07T00:05:50.192Z,-4.69
2023-02-07T00:08:17.367Z,-4.67
2023-02-07T00:10:44.366Z,-4.74
2023-02-07T00:13:11.257Z,-4.75
2023-02-07T00:15:38.635Z,-4.78
2023-02-07T00:18:05.923Z,-4.83
2023-02-07T00:20:32.790Z,-4.85
2023-02-07T00:22:59.692Z,-4.87
2023-02-07T00:25:26.783Z,-4.86
2023-02-07T00:27:53.757Z,-4.82
2023-02-07T00:30:21.462Z,-4.78
2023-02-07T00:32:48.524Z,-4.76
2023-02-07T00:35:17.326Z,-4.78
2023-02-07T00:37:44.559Z,-4.78
2023-02-07T00:40:11.618Z,-4.79
2023-02-07T00:42:38.566Z,-4.81
2023-02-07T00:45:05.592Z,-4.88
2023-02-07T00:47:32.491Z,-4.92
2023-02-07T00:49:59.358Z,-4.94
2023-02-07T00:52:26.241Z,-4.95
2023-02-07T00:54:53.100Z,-4.92
2023-02-07T00:57:19.989Z,-4.93
2023-02-07T00:59:47.005Z,-4.98
2023-02-07T01:02:13.939Z,-5.00
2023-02-07T01:04:40.945Z,-5.00
2023-02-07T01:07:08.830Z,-4.97
2023-02-07T01:09:35.805Z,-4.98
2023-02-07T01:12:02.934Z,-4.98
2023-02-07T01:14:29.851Z,-4.94
2023-02-07T01:16:56.838Z,-4.96
2023-02-07T01:19:23.889Z,-4.92
2023-02-07T01:21:50.981Z,-4.92
2023-02-07T01:24:17.989Z,-4.98
2023-02-07T01:26:45.009Z,-4.95
2023-02-07T01:29:15.278Z,-4.98
2023-02-07T01:31:43.301Z,-5.00
2023-02-07T01:34:12.598Z,-4.98
2023-02-07T01:36:40.458Z,-5.01
2023-02-07T01:39:07.388Z,-5.03
2023-02-07T01:41:34.472Z,-5.04
2023-02-07T01:44:03.195Z,-5.06
2023-02-07T01:46:31.975Z,-5.03
2023-02-07T01:49:04.149Z,-5.02
2023-02-07T01:51:33.356Z,-5.01
2023-02-07T01:54:04.940Z,-5.08
2023-02-07T01:56:33.037Z,-5.11
2023-02-07T01:59:04.520Z,-5.12
2023-02-07T02:01:31.840Z,-5.15
2023-02-07T02:03:58.822Z,-5.16
2023-02-07T02:06:30.656Z,-5.22
2023-02-07T02:09:02.295Z,-5.26
2023-02-07T02:11:42.189Z,-5.32
2023-02-07T02:14:30.102Z,-5.35
2023-02-07T02:17:07.085Z,-5.40
2023-02-07T02:19:45.534Z,-5.51
2023-02-07T02:22:23.761Z,-5.53
2023-02-07T02:25:29.527Z,-5.57
2023-02-07T02:28:28.590Z,-5.63
2023-02-07T02:31:31.712Z,-5.68
2023-02-07T02:34:13.581Z,-5.73
2023-02-07T02:36:57.665Z,-5.75
2023-02-07T02:39:36.630Z,-5.83
2023-02-07T02:42:23.839Z,-5.82
2023-02-07T02:44:59.674Z,-5.85
2023-02-07T02:47:29.599Z,-5.89
2023-02-07T02:49:57.466Z,-5.93
2023-02-07T02:52:34.044Z,-5.97
2023-02-07T02:55:07.727Z,-5.98
2023-02-07T02:57:46.957Z,-6.05
2023-02-07T03:00:22.700Z,-6.06
2023-02-07T03:03:26.918Z,-6.08
2023-02-07T03:06:02.652Z,-6.14
2023-02-07T03:08:54.230Z,-6.14
2023-02-07T03:11:23.819Z,-6.20
2023-02-07T03:14:03.362Z,-6.25
2023-02-07T03:16:49.500Z,-6.29
2023-02-07T03:19:52.533Z,-6.42
2023-02-07T03:22:22.979Z,-6.39
2023-02-07T03:24:54.102Z,-6.48
2023-02-07T03:27:24.336Z,-6.54
2023-02-07T03:29:59.226Z,-6.56
2023-02-07T03:32:31.481Z,-6.59
2023-02-07T03:35:08.706Z,-6.62
2023-02-07T03:37:42.945Z,-6.67
2023-02-07T03:40:11.414Z,-6.73
2023-02-07T03:42:53.352Z,-6.71
2023-02-07T03:45:21.915Z,-6.79
2023-02-07T03:47:49.643Z,-6.76
2023-02-07T03:50:17.389Z,-6.81
2023-02-07T03:52:44.543Z,-6.83
2023-02-07T03:55:11.682Z,-6.89
2023-02-07T03:57:38.736Z,-6.92
2023-02-07T04:00:07.057Z,-6.95
2023-02-07T04:02:39.580Z,-6.89
2023-02-07T04:05:06.837Z,-6.90
2023-02-07T04:07:34.365Z,-6.85
2023-02-07T04:10:01.249Z,-6.88
2023-02-07T04:12:32.976Z,-6.94
2023-02-07T04:15:01.152Z,-6.89
2023-02-07T04:17:31.171Z,-6.87
2023-02-07T04:19:58.410Z,-6.87
2023-02-07T04:22:25.275Z,-6.85
2023-02-07T04:24:52.155Z,-6.84
2023-02-07T04:27:19.219Z,-6.80
2023-02-07T04:29:46.138Z,-6.84
2023-02-07T04:32:13.910Z,-6.82
2023-02-07T04:34:40.995Z,-6.87
2023-02-07T04:37:08.006Z,-6.88
2023-02-07T04:39:34.884Z,-6.86
2023-02-07T04:42:01.867Z,-6.85
2023-02-07T04:44:28.752Z,-6.89
2023-02-07T04:46:56.002Z,-6.88
2023-02-07T04:49:22.969Z,-6.85
2023-02-07T04:51:49.878Z,-6.82
2023-02-07T04:54:16.826Z,-6.89
2023-02-07T04:56:43.695Z,-6.86
2023-02-07T04:59:10.747Z,-6.94
2023-02-07T05:01:37.712Z,-7.02
2023-02-07T05:04:05.896Z,-7.02
2023-02-07T05:06:32.797Z,-6.91
2023-02-07T05:08:59.685Z,-6.90
2023-02-07T05:11:26.642Z,-6.94
2023-02-07T05:13:53.592Z,-6.94
2023-02-07T05:16:20.542Z,-6.86
2023-02-07T05:18:47.485Z,-6.87
2023-02-07T05:21:14.404Z,-6.87
2023-02-07T05:23:41.281Z,-6.83
2023-02-07T05:26:08.273Z,-6.80
2023-02-07T05:28:35.184Z,-6.87
2023-02-07T05:31:02.163Z,-6.82
2023-02-07T05:33:29.281Z,-6.81
2023-02-07T05:35:56.133Z,-6.79
2023-02-07T05:38:23.048Z,-6.78
2023-02-07T05:40:50.472Z,-6.78
2023-02-07T05:43:17.764Z,-6.79
2023-02-07T05:45:45.936Z,-6.72
2023-02-07T05:48:13.686Z,-6.62
2023-02-07T05:50:40.778Z,-6.64
2023-02-07T05:53:10.438Z,-6.65
2023-02-07T05:55:38.034Z,-6.60
2023-02-07T05:58:05.676Z,-6.53
2023-02-07T06:00:32.626Z,-6.53
2023-02-07T06:02:59.668Z,-6.51
2023-02-07T06:05:31.878Z,-6.53
2023-02-07T06:07:59.704Z,-6.56
2023-02-07T06:10:26.793Z,-6.56
2023-02-07T06:12:53.795Z,-6.52
2023-02-07T06:15:20.838Z,-6.47
2023-02-07T06:17:48.279Z,-6.47
2023-02-07T06:20:15.389Z,-6.41
2023-02-07T06:22:42.446Z,-6.37
2023-02-07T06:25:11.954Z,-6.31
2023-02-07T06:27:40.632Z,-6.22
2023-02-07T06:30:09.103Z,-6.20
2023-02-07T06:32:36.102Z,-6.15
2023-02-07T06:35:03.632Z,-6.08
2023-02-07T06:37:30.542Z,-6.07
2023-02-07T06:39:57.551Z,-6.05
2023-02-07T06:42:24.836Z,-5.97
2023-02-07T06:44:51.808Z,-5.94
2023-02-07T06:47:20.915Z,-5.98
2023-02-07T06:49:47.943Z,-5.95
2023-02-07T06:52:15.408Z,-5.89
2023-02-07T06:54:42.568Z,-5.88
2023-02-07T06:57:09.505Z,-5.79
2023-02-07T06:59:36.607Z,-5.83
2023-02-07T07:02:03.935Z,-5.76
2023-02-07T07:04:31.170Z,-5.81
2023-02-07T07:06:58.528Z,-5.86
2023-02-07T07:09:26.701Z,-5.78
2023-02-07T07:11:53.973Z,-5.78
2023-02-07T07:14:21.216Z,-5.71
2023-02-07T07:16:48.261Z,-5.75
2023-02-07T07:19:15.340Z,-5.62
2023-02-07T07:21:42.309Z,-5.62
2023-02-07T07:24:09.628Z,-5.62
2023-02-07T07:26:48.405Z,-5.80
2023-02-07T07:29:20.105Z,-5.84
2023-02-07T07:31:47.444Z,-5.97
2023-02-07T07:34:14.768Z,-5.86
2023-02-07T07:36:41.930Z,-5.95
2023-02-07T07:39:09.169Z,-5.99
2023-02-07T07:41:36.233Z,-5.91
2023-02-07T07:44:03.571Z,-5.84
2023-02-07T07:46:30.692Z,-5.78
2023-02-07T07:48:57.975Z,-5.71
2023-02-07T07:51:24.871Z,-5.68
2023-02-07T07:53:52.052Z,-5.54
2023-02-07T07:56:19.012Z,-5.38
2023-02-07T07:58:45.976Z,-5.45
2023-02-07T08:01:12.992Z,-5.41
2023-02-07T08:03:40.069Z,-5.28
2023-02-07T08:06:07.568Z,-5.27
2023-02-07T08:08:34.658Z,-5.31
2023-02-07T08:11:06.595Z,-5.13
2023-02-07T08:13:33.901Z,-5.04
2023-02-07T08:16:01.962Z,-5.11
2023-02-07T08:18:29.828Z,-4.96
2023-02-07T08:20:57.228Z,-4.99
2023-02-07T08:23:24.298Z,-5.06
2023-02-07T08:25:51.628Z,-5.07
2023-02-07T08:28:19.055Z,-4.97
2023-02-07T08:30:48.944Z,-4.97
2023-02-07T08:33:17.266Z,-4.79
2023-02-07T08:35:45.684Z,-4.54
2023-02-07T08:38:12.772Z,-4.59
2023-02-07T08:40:40.090Z,-4.62
2023-02-07T08:43:12.460Z,-4.48
2023-02-07T08:45:41.220Z,-4.32
2023-02-07T08:48:08.744Z,-4.33
2023-02-07T08:50:35.956Z,-4.32
2023-02-07T08:53:03.176Z,-4.27
2023-02-07T08:55:30.888Z,-4.41
2023-02-07T08:57:57.978Z,-4.43
2023-02-07T09:00:25.011Z,-4.40
2023-02-07T09:02:52.056Z,-4.33
2023-02-07T09:05:19.249Z,-4.47
2023-02-07T09:07:46.215Z,-4.27
2023-02-07T09:10:13.183Z,-4.26
2023-02-07T09:12:40.100Z,-4.00
2023-02-07T09:15:07.594Z,-4.04
2023-02-07T09:17:34.687Z,-3.95
2023-02-07T09:20:01.688Z,-4.03
2023-02-07T09:22:28.720Z,-3.83
2023-02-07T09:24:55.703Z,-4.04
2023-02-07T09:27:22.666Z,-4.24
2023-02-07T09:29:49.728Z,-4.06
2023-02-07T09:32:16.697Z,-4.22
2023-02-07T09:34:43.680Z,-4.43
2023-02-07T09:37:10.546Z,-4.38
2023-02-07T09:39:39.074Z,-4.12
2023-02-07T09:42:11.887Z,-3.84
2023-02-07T10:17:31.082Z,-3.64
2023-02-07T10:20:06.477Z,-3.37
2023-02-07T10:22:43.153Z,-3.21
2023-02-07T10:25:34.107Z,-3.23
2023-02-07T10:28:16.306Z,-3.49
2023-02-07T10:31:13.817Z,-3.37
2023-02-07T10:33:47.856Z,-3.26
2023-02-07T10:36:16.795Z,-3.30
2023-02-07T10:39:08.602Z,-3.33
2023-02-07T10:41:39.266Z,-3.44
2023-02-07T10:44:10.424Z,-3.24
2023-02-07T10:46:38.805Z,-3.21
2023-02-07T10:49:06.066Z,-3.20
2023-02-07T10:51:45.880Z,-3.03
2023-02-07T10:54:16.812Z,-3.30
2023-02-07T10:56:46.938Z,-3.08
2023-02-07T10:59:40.778Z,-3.06
2023-02-07T11:02:31.221Z,-3.15
2023-02-07T11:05:05.948Z,-3.12
2023-02-07T11:07:46.032Z,-3.17
2023-02-07T11:10:16.535Z,-2.90
2023-02-07T11:12:50.288Z,-3.27
2023-02-07T11:15:26.267Z,-3.18
2023-02-07T11:17:57.106Z,-3.43
2023-02-07T11:20:37.791Z,-3.56
2023-02-07T11:23:11.672Z,-3.51
2023-02-07T11:25:46.092Z,-3.82
2023-02-07T11:28:21.687Z,-3.60
2023-02-07T11:30:58.201Z,-3.69
2023-02-07T11:33:27.298Z,-3.54
2023-02-07T11:36:19.008Z,-3.50
2023-02-07T11:38:54.140Z,-3.35
2023-02-07T11:41:28.266Z,-3.60
2023-02-07T11:43:55.880Z,-3.74
2023-02-07T11:46:30.930Z,-3.94
2023-02-07T11:48:59.009Z,-3.69
2023-02-07T11:51:26.764Z,-3.66
2023-02-07T11:54:01.648Z,-3.85
2023-02-07T11:56:43.548Z,-3.76
2023-02-07T11:59:24.085Z,-3.79
2023-02-07T12:01:54.208Z,-3.80
2023-02-07T12:04:27.190Z,-3.66
2023-02-07T12:07:03.270Z,-3.62
2023-02-07T12:09:33.923Z,-3.84
2023-02-07T12:12:09.789Z,-3.80
2023-02-07T12:14:44.079Z,-3.92
2023-02-07T12:17:21.147Z,-4.11
2023-02-07T12:20:15.440Z,-3.88
2023-02-07T12:23:01.097Z,-3.50
2023-02-07T12:25:52.709Z,-3.32
2023-02-07T12:29:03.982Z,-3.40
2023-02-07T12:32:05.327Z,-3.52
2023-02-07T12:34:43.946Z,-3.52
2023-02-07T12:37:25.633Z,-3.80
2023-02-07T12:40:04.297Z,-3.89
2023-02-07T12:43:11.264Z,-3.55
2023-02-07T12:45:47.237Z,-3.60
2023-02-07T12:48:30.031Z,-3.76
2023-02-07T12:51:10.258Z,-3.84
2023-02-07T12:54:02.546Z,-3.69
2023-02-07T12:56:59.816Z,-3.67
2023-02-07T13:00:17.983Z,-3.42
2023-02-07T13:03:13.186Z,-3.33
2023-02-07T13:06:13.437Z,-3.59
2023-02-07T13:08:54.187Z,-3.71
2023-02-07T13:11:39.110Z,-3.61
2023-02-07T13:14:14.826Z,-3.66
2023-02-07T13:17:19.092Z,-3.92
2023-02-07T13:19:48.980Z,-3.86
2023-02-07T13:22:45.199Z,-3.95
2023-02-07T13:25:43.623Z,-3.97
2023-02-07T13:28:21.408Z,-4.01
2023-02-07T13:30:50.788Z,-4.02
2023-02-07T13:33:39.140Z,-4.09
2023-02-07T13:36:30.407Z,-4.20
2023-02-07T13:39:03.343Z,-4.28
2023-02-07T13:41:53.370Z,-4.13
2023-02-07T13:44:43.065Z,-4.13
2023-02-07T13:47:48.086Z,-3.96
2023-02-07T13:50:47.609Z,-4.02
2023-02-07T13:53:40.695Z,-4.18
2023-02-07T13:56:32.496Z,-3.95
2023-02-07T13:59:18.452Z,-4.11
2023-02-07T14:01:54.528Z,-4.16
2023-02-07T14:04:23.071Z,-4.26
2023-02-07T14:07:08.962Z,-4.16
2023-02-07T14:09:43.291Z,-4.07
2023-02-07T14:12:33.115Z,-4.11
2023-02-07T14:15:18.448Z,-4.11
2023-02-07T14:17:45.282Z,-4.04
2023-02-07T14:20:40.566Z,-4.19
2023-02-07T14:23:19.967Z,-4.16
2023-02-07T14:25:47.565Z,-4.16
2023-02-07T14:28:31.062Z,-4.30
2023-02-07T14:31:11.130Z,-4.30
2023-02-07T14:33:39.724Z,-4.32
2023-02-07T14:36:28.898Z,-4.39
2023-02-07T14:39:23.931Z,-4.39
2023-02-07T14:41:52.941Z,-4.27
2023-02-07T14:44:42.021Z,-4.36
2023-02-07T14:47:20.219Z,-4.47
2023-02-07T14:49:50.930Z,-4.40
2023-02-07T14:52:26.192Z,-4.32
2023-02-07T14:55:01.768Z,-4.39
2023-02-07T14:57:59.067Z,-4.54
2023-02-07T15:00:46.160Z,-4.55
2023-02-07T15:03:18.902Z,-4.60
2023-02-07T15:06:00.694Z,-4.66
2023-02-07T15:08:38.517Z,-4.65
2023-02-07T15:11:11.203Z,-4.65
2023-02-07T15:14:05.360Z,-4.67
2023-02-07T15:16:38.607Z,-4.71
2023-02-07T15:19:35.867Z,-4.78
2023-02-07T15:22:06.702Z,-4.81
2023-02-07T15:24:51.457Z,-4.73
2023-02-07T15:27:25.238Z,-4.77
2023-02-07T15:30:04.159Z,-4.69
2023-02-07T15:32:42.392Z,-4.68
2023-02-07T15:35:14.189Z,-4.73
2023-02-07T15:37:41.306Z,-4.82
2023-02-07T15:40:16.764Z,-4.90
2023-02-07T15:42:56.684Z,-4.95
2023-02-07T15:45:32.348Z,-4.94
2023-02-07T15:48:02.642Z,-4.97
2023-02-07T15:50:32.374Z,-4.93
2023-02-07T15:53:02.609Z,-4.91
2023-02-07T15:55:48.082Z,-4.89
2023-02-07T15:58:24.967Z,-4.93
2023-02-07T16:00:53.330Z,-4.90
2023-02-07T16:03:31.636Z,-4.99
2023-02-07T16:06:21.044Z,-4.98
2023-02-07T16:08:50.931Z,-5.03
2023-02-07T16:11:26.706Z,-5.01
2023-02-07T16:14:18.371Z,-5.04
2023-02-07T16:16:51.618Z,-5.01
2023-02-07T16:19:25.222Z,-4.98
2023-02-07T16:22:14.008Z,-5.00
2023-02-07T16:24:44.370Z,-4.97
2023-02-07T16:27:24.601Z,-4.93
2023-02-07T16:29:52.004Z,-4.89
2023-02-07T16:32:18.942Z,-4.90
2023-02-07T16:34:59.028Z,-4.93
2023-02-07T16:37:28.154Z,-4.94
2023-02-07T16:39:55.383Z,-4.95
2023-02-07T16:42:22.467Z,-4.99
2023-02-07T16:44:49.456Z,-5.06
2023-02-07T16:47:17.954Z,-5.12
2023-02-07T16:49:46.198Z,-5.16
2023-02-07T16:52:13.157Z,-5.18
2023-02-07T16:54:40.222Z,-5.15
2023-02-07T16:57:07.528Z,-5.15
2023-02-07T16:59:34.439Z,-5.18
2023-02-07T17:02:01.497Z,-5.17
2023-02-07T17:04:28.400Z,-5.22
2023-02-07T17:06:55.458Z,-5.29
2023-02-07T17:09:24.802Z,-5.39
2023-02-07T17:11:53.509Z,-5.43
2023-02-07T17:14:21.121Z,-5.45
2023-02-07T17:16:48.346Z,-5.51
2023-02-07T17:19:23.158Z,-5.53
2023-02-07T17:21:51.655Z,-5.58
2023-02-07T17:24:18.861Z,-5.65
2023-02-07T17:26:49.097Z,-5.70
2023-02-07T17:29:17.552Z,-5.71
2023-02-07T17:31:45.195Z,-5.72
2023-02-07T17:34:12.452Z,-5.73
2023-02-07T17:36:43.374Z,-5.73
2023-02-07T17:39:13.677Z,-5.69
2023-02-07T17:41:40.776Z,-5.68
2023-02-07T17:44:08.149Z,-5.66
2023-02-07T17:46:35.105Z,-5.62
2023-02-07T17:49:02.371Z,-5.62
2023-02-07T17:51:29.983Z,-5.58
2023-02-07T17:53:57.304Z,-5.54
2023-02-07T17:56:30.065Z,-5.56
2023-02-07T17:59:00.763Z,-5.66
2023-02-07T18:01:27.793Z,-5.75
2023-02-07T18:03:55.910Z,-5.84
2023-02-07T18:06:26.087Z,-5.77
2023-02-07T18:08:55.681Z,-5.67
2023-02-07T18:11:23.500Z,-5.61
2023-02-07T18:13:51.374Z,-5.62
2023-02-07T18:16:24.536Z,-5.63
2023-02-07T18:18:53.327Z,-5.58
2023-02-07T18:21:20.831Z,-5.51
2023-02-07T18:23:48.498Z,-5.46
2023-02-07T18:26:16.772Z,-5.39
2023-02-07T18:28:44.238Z,-5.33
2023-02-07T18:31:18.041Z,-5.26
2023-02-07T18:33:45.658Z,-5.25
2023-02-07T18:36:12.669Z,-5.22
2023-02-07T18:38:40.032Z,-5.19
2023-02-07T18:41:12.618Z,-5.16
2023-02-07T18:43:40.971Z,-5.08
2023-02-07T18:46:13.721Z,-5.03
2023-02-07T18:48:41.221Z,-4.98
2023-02-07T18:51:10.779Z,-4.97
2023-02-07T18:53:38.626Z,-5.01
2023-02-07T18:56:08.590Z,-5.00
2023-02-07T18:58:35.645Z,-5.02
2023-02-07T19:01:11.078Z,-4.98
2023-02-07T19:03:38.673Z,-4.95
2023-02-07T19:06:07.048Z,-4.97
2023-02-07T19:08:34.560Z,-5.07
2023-02-07T19:11:04.828Z,-5.13
2023-02-07T19:13:33.258Z,-5.18
2023-02-07T19:16:09.452Z,-5.23
2023-02-07T19:18:36.481Z,-5.24
2023-02-07T19:21:15.255Z,-5.20
2023-02-07T19:23:42.752Z,-5.22
2023-02-07T19:26:10.308Z,-5.26
2023-02-07T19:28:38.310Z,-5.21
2023-02-07T19:31:10.779Z,-5.29
2023-02-07T19:33:37.841Z,-5.27
2023-02-07T19:36:07.605Z,-5.28
2023-02-07T19:38:34.760Z,-5.24
2023-02-07T19:41:02.513Z,-5.21
2023-02-07T19:43:29.570Z,-5.22
2023-02-07T19:45:56.594Z,-5.14
2023-02-07T19:48:24.376Z,-5.10
2023-02-07T19:51:02.505Z,-5.02
2023-02-07T19:53:30.181Z,-5.00
2023-02-07T19:56:18.627Z,-4.93
2023-02-07T19:58:51.076Z,-4.91
2023-02-07T20:01:18.834Z,-4.88
2023-02-07T20:03:50.903Z,-4.89
2023-02-07T20:06:22.674Z,-4.87
2023-02-07T20:08:50.277Z,-4.88
2023-02-07T20:11:20.080Z,-4.83
2023-02-07T20:13:52.695Z,-4.83
2023-02-07T20:16:22.599Z,-4.76
2023-02-07T20:18:52.165Z,-4.76
2023-02-07T20:21:22.354Z,-4.81
2023-02-07T20:23:51.416Z,-4.78
2023-02-07T20:26:39.724Z,-4.78
2023-02-07T20:29:10.913Z,-4.77
2023-02-07T20:31:39.337Z,-4.78
2023-02-07T20:34:07.408Z,-4.70
2023-02-07T20:36:41.494Z,-4.56
2023-02-07T20:39:12.468Z,-4.65
2023-02-07T20:41:41.628Z,-4.77
2023-02-07T20:44:21.037Z,-4.81
2023-02-07T20:46:49.422Z,-4.86
2023-02-07T20:49:22.570Z,-4.80
2023-02-07T20:51:51.899Z,-4.75
2023-02-07T20:54:21.328Z,-4.75
2023-02-07T20:56:48.299Z,-4.79
2023-02-07T20:59:24.380Z,-4.78
2023-02-07T21:01:51.505Z,-4.78
2023-02-07T21:04:19.067Z,-4.77
2023-02-07T21:06:46.391Z,-4.71
2023-02-07T21:09:14.675Z,-4.70
2023-02-07T21:11:45.412Z,-4.67
2023-02-07T21:14:30.265Z,-4.69
2023-02-07T21:17:02.806Z,-4.74
2023-02-07T21:19:29.814Z,-4.80
2023-02-07T21:21:56.725Z,-4.78
2023-02-07T21:24:24.209Z,-4.74
2023-02-07T21:26:53.081Z,-4.70
2023-02-07T21:29:21.302Z,-4.68
2023-02-07T21:31:49.145Z,-4.70
2023-02-07T21:34:17.949Z,-4.71
2023-02-07T21:36:45.179Z,-4.71
2023-02-07T21:39:12.462Z,-4.70
2023-02-07T21:41:43.172Z,-4.74
2023-02-07T21:44:11.893Z,-4.70
2023-02-07T21:46:42.092Z,-4.70
2023-02-07T21:49:14.781Z,-4.67
2023-02-07T21:51:43.617Z,-4.70
2023-02-07T21:54:10.784Z,-4.73
2023-02-07T21:56:40.196Z,-4.74
2023-02-07T21:59:18.492Z,-4.77
2023-02-07T22:01:47.604Z,-4.74
2023-02-07T22:04:15.167Z,-4.72
2023-02-07T22:06:44.048Z,-4.77
2023-02-07T22:09:13.419Z,-4.80
2023-02-07T22:11:40.979Z,-4.73
2023-02-07T22:14:08.015Z,-4.74
2023-02-07T22:16:35.306Z,-4.82
2023-02-07T22:19:06.238Z,-4.81
2023-02-07T22:21:37.240Z,-4.82
2023-02-07T22:24:05.877Z,-4.82
2023-02-07T22:26:34.662Z,-4.84
2023-02-07T22:29:02.617Z,-4.86
2023-02-07T22:31:31.681Z,-4.81
2023-02-07T22:34:00.884Z,-4.82
2023-02-07T22:36:30.090Z,-4.83
2023-02-07T22:38:59.571Z,-4.72
2023-02-07T22:41:27.079Z,-4.76
2023-02-07T22:43:54.081Z,-4.71
2023-02-07T22:46:22.866Z,-4.74
2023-02-07T22:48:51.008Z,-4.77
2023-02-07T22:51:22.138Z,-4.75
2023-02-07T22:53:50.908Z,-4.75
2023-02-07T22:56:17.998Z,-4.75
2023-02-07T22:58:45.066Z,-4.75
2023-02-07T23:01:36.788Z,-4.76
2023-02-07T23:04:05.600Z,-4.77
2023-02-07T23:06:32.826Z,-4.81
2023-02-07T23:09:00.148Z,-4.83
2023-02-07T23:11:27.041Z,-4.84
2023-02-07T23:13:54.171Z,-4.82
2023-02-07T23:16:24.173Z,-4.82
2023-02-07T23:18:52.973Z,-4.76
2023-02-07T23:21:21.779Z,-4.78
2023-02-07T23:23:49.335Z,-4.77
2023-02-07T23:26:19.592Z,-4.76
2023-02-07T23:28:46.951Z,-4.75
2023-02-07T23:31:16.569Z,-4.80
2023-02-07T23:33:43.882Z,-4.78
2023-02-07T23:36:10.916Z,-4.74
2023-02-07T23:38:38.236Z,-4.78
2023-02-07T23:41:07.333Z,-4.76
2023-02-07T23:43:35.626Z,-4.76
2023-02-07T23:46:02.652Z,-4.75
2023-02-07T23:48:29.930Z,-4.75
2023-02-07T23:50:58.368Z,-4.65
2023-02-07T23:53:25.805Z,-4.65
2023-02-07T23:55:55.183Z,-4.67
2023-02-07T23:58:23.906Z,-4.67
